createdAt,value
2018-07-11T03:05:55.343Z,99.99
2018-07-11T03:06:55.835Z,99.99
2018-07-11T03:08:02.749Z,99.99
2018-07-11T03:08:57.156Z,99.99
2018-07-11T03:09:59.032Z,99.99
2018-07-11T05:25:39.586Z,99.81
2018-07-11T05:40:36.247Z,99.99
2018-07-11T05:41:36.705Z,99.99
2018-07-11T05:42:36.536Z,99.99
2018-07-11T05:43:36.825Z,99.99
2018-07-11T05:44:36.966Z,99.99
2018-07-11T05:45:37.378Z,99.99
2018-07-11T05:46:37.476Z,99.99
2018-07-11T05:49:20.112Z,99.99
2018-07-11T05:50:20.683Z,99.99
2018-07-11T05:51:20.921Z,99.91
2018-07-11T05:52:21.027Z,99.99
2018-07-11T05:57:11.428Z,99.99
2018-07-11T05:58:07.434Z,99.99
2018-07-11T06:00:54.272Z,99.81
2018-07-11T06:01:53.683Z,99.99
2018-07-11T06:02:53.697Z,99.99
2018-07-11T06:05:44.912Z,99.24
2018-07-11T06:27:49.308Z,96.89
2018-07-11T06:28:49.941Z,96.61
2018-07-11T06:29:49.215Z,96.89
2018-07-11T06:30:49.510Z,97.38
2018-07-11T06:31:49.322Z,97.38
2018-07-11T06:32:49.887Z,97.18
2018-07-11T06:33:49.573Z,98.05
2018-07-11T06:34:50.422Z,97.95
2018-07-11T06:35:50.010Z,98.62
2018-07-11T06:36:50.730Z,97.85
2018-07-11T06:37:50.641Z,98.05
2018-07-11T06:38:50.817Z,97.66
2018-07-11T06:39:50.504Z,97.47
2018-07-11T06:40:51.354Z,97.14
2018-07-11T06:41:48.753Z,96.75
2018-07-11T06:42:50.128Z,97.33
2018-07-11T06:43:49.273Z,97.61
2018-07-11T06:44:49.452Z,97.23
2018-07-11T06:45:49.695Z,97.71
2018-07-11T06:46:49.433Z,97.33
2018-07-11T06:47:50.540Z,97.42
2018-07-11T06:48:50.391Z,98.67
2018-07-11T06:49:50.390Z,98.10
2018-07-11T06:51:02.039Z,98.19
2018-07-11T06:51:53.998Z,96.56
2018-07-11T06:52:52.472Z,98.10
2018-07-11T06:53:53.275Z,98.00
2018-07-11T06:54:55.524Z,97.56
2018-07-11T06:55:54.989Z,98.24
2018-07-11T06:56:53.788Z,98.24
2018-07-11T06:57:57.138Z,98.43
2018-07-11T06:58:52.630Z,97.52
2018-07-11T06:59:52.149Z,97.33
2018-07-11T07:00:52.323Z,95.31
2018-07-11T07:01:52.548Z,94.35
2018-07-11T07:02:52.553Z,94.17
2018-07-11T07:03:52.953Z,94.21
2018-07-11T07:04:52.989Z,94.69
2018-07-11T07:05:53.105Z,93.92
2018-07-11T07:06:53.091Z,93.25
2018-07-11T07:07:53.707Z,92.48
2018-07-11T07:09:04.599Z,93.44
2018-07-11T07:09:56.999Z,93.68
2018-07-11T07:10:55.922Z,93.30
2018-07-11T07:11:54.711Z,92.68
2018-07-11T07:12:54.115Z,91.38
2018-07-11T07:13:54.015Z,90.32
2018-07-11T07:14:55.236Z,91.19
2018-07-11T07:15:54.873Z,90.52
2018-07-11T07:16:54.772Z,91.19
2018-07-11T07:17:54.851Z,91.47
2018-07-11T07:18:54.973Z,91.47
2018-07-11T07:19:55.132Z,91.28
2018-07-11T07:20:55.407Z,91.09
2018-07-11T07:21:55.532Z,90.80
2018-07-11T07:22:55.568Z,89.84
2018-07-11T07:23:56.106Z,89.36
2018-07-11T07:24:55.925Z,90.13
2018-07-11T07:25:56.091Z,90.08
2018-07-11T07:26:56.238Z,89.02
2018-07-11T07:27:56.568Z,88.54
2018-07-11T07:28:56.957Z,88.93
2018-07-11T07:29:57.494Z,88.93
2018-07-11T07:31:57.285Z,88.54
2018-07-11T07:32:57.529Z,88.49
2018-07-11T07:33:57.569Z,87.82
2018-07-11T07:34:57.702Z,88.39
2018-07-11T07:35:58.096Z,87.62
2018-07-11T07:36:58.158Z,87.92
2018-07-11T07:37:58.303Z,88.30
2018-07-11T07:38:58.480Z,86.95
2018-07-11T07:39:58.836Z,86.95
2018-07-11T07:40:59.115Z,86.57
2018-07-11T07:41:59.118Z,86.95
2018-07-11T07:42:59.318Z,86.85
2018-07-11T07:43:59.468Z,86.18
2018-07-11T07:44:59.589Z,86.33
2018-07-11T07:45:59.776Z,86.72
2018-07-11T07:47:00.755Z,87.10
2018-07-11T07:48:00.251Z,87.87
2018-07-11T07:49:00.444Z,86.72
2018-07-11T07:50:00.658Z,87.87
2018-07-11T07:51:00.671Z,87.77
2018-07-11T07:52:00.995Z,88.93
2018-07-11T07:53:01.292Z,88.54
2018-07-11T07:54:01.430Z,88.35
2018-07-11T07:55:01.506Z,88.59
2018-07-11T07:56:01.924Z,89.22
2018-07-11T07:57:01.959Z,88.64
2018-07-11T07:58:02.275Z,87.68
2018-07-11T07:59:02.415Z,88.35
2018-07-11T08:00:02.700Z,88.54
2018-07-11T08:01:02.756Z,87.77
2018-07-11T08:02:03.053Z,87.01
2018-07-11T08:03:03.252Z,87.87
2018-07-11T08:04:03.444Z,86.62
2018-07-11T08:05:03.684Z,86.52
2018-07-11T08:06:03.714Z,86.24
2018-07-11T08:07:03.954Z,87.01
2018-07-11T08:08:03.899Z,86.81
2018-07-11T08:09:04.296Z,86.62
2018-07-11T08:10:04.280Z,86.66
2018-07-11T08:11:04.446Z,85.46
2018-07-11T08:12:04.597Z,85.84
2018-07-11T08:13:04.758Z,83.44
2018-07-11T08:14:04.945Z,84.73
2018-07-11T08:15:05.052Z,81.27
2018-07-11T08:16:05.233Z,82.32
2018-07-11T08:17:05.476Z,83.19
2018-07-11T08:18:05.658Z,83.52
2018-07-11T08:19:05.924Z,80.83
2018-07-11T08:20:06.069Z,80.00
2018-07-11T08:21:06.178Z,79.52
2018-07-11T08:22:06.457Z,79.33
2018-07-11T08:23:06.550Z,77.73
2018-07-11T08:24:06.709Z,77.48
2018-07-11T08:25:07.001Z,77.48
2018-07-11T08:26:07.138Z,77.03
2018-07-11T08:27:07.266Z,75.62
2018-07-11T08:28:07.388Z,73.21
2018-07-11T08:29:07.537Z,72.77
2018-07-11T08:30:07.691Z,72.96
2018-07-11T08:31:07.844Z,74.16
2018-07-11T08:32:08.017Z,73.00
2018-07-11T08:33:08.203Z,71.78
2018-07-11T08:34:08.459Z,71.26
2018-07-11T08:35:08.769Z,72.00
2018-07-11T08:36:08.779Z,68.52
2018-07-11T08:37:08.899Z,69.29
2018-07-11T08:38:09.140Z,68.39
2018-07-11T08:39:09.343Z,72.73
2018-07-11T08:40:09.460Z,75.10
2018-07-11T08:41:09.605Z,75.16
2018-07-11T08:42:09.836Z,73.14
2018-07-11T08:43:09.991Z,74.97
2018-07-11T08:44:10.223Z,76.03
2018-07-11T08:45:10.280Z,76.61
2018-07-11T08:46:10.431Z,78.34
2018-07-11T08:47:10.600Z,78.11
2018-07-11T08:48:10.880Z,79.08
2018-07-11T08:49:10.952Z,78.31
2018-07-11T08:50:11.108Z,75.90
2018-07-11T08:51:11.195Z,77.44
2018-07-11T08:52:11.501Z,76.67
2018-07-11T08:53:11.618Z,78.21
2018-07-11T08:54:11.809Z,77.06
2018-07-11T08:55:12.104Z,74.26
2018-07-11T08:56:12.191Z,76.73
2018-07-11T08:57:12.395Z,78.98
2018-07-11T08:58:13.474Z,77.25
2018-07-11T08:59:12.739Z,75.99
2018-07-11T09:00:12.914Z,74.74
2018-07-11T09:01:12.991Z,74.61
2018-07-11T09:02:13.200Z,75.38
2018-07-11T09:03:13.669Z,75.19
2018-07-11T09:04:13.639Z,76.34
2018-07-11T09:05:14.057Z,77.50
2018-07-11T09:06:14.080Z,77.31
2018-07-11T09:07:14.247Z,76.31
2018-07-11T09:08:14.467Z,77.46
2018-07-11T09:09:14.619Z,78.03
2018-07-11T09:10:15.084Z,77.65
2018-07-11T09:11:15.275Z,77.36
2018-07-11T09:12:15.239Z,77.26
2018-07-11T09:13:15.339Z,78.23
2018-07-11T09:14:15.769Z,78.81
2018-07-11T09:16:51.440Z,76.94
2018-07-11T09:17:51.809Z,76.84
2018-07-11T09:18:52.630Z,77.04
2018-07-11T09:19:52.021Z,77.61
2018-07-11T09:20:52.527Z,77.61
2018-07-11T09:21:53.011Z,78.53
2018-07-11T09:22:53.222Z,78.34
2018-07-11T09:23:53.880Z,78.15
2018-07-11T09:24:53.606Z,78.44
2018-07-11T09:25:52.980Z,77.96
2018-07-11T09:27:51.714Z,77.38
2018-07-11T09:28:51.239Z,77.58
2018-07-11T09:29:51.184Z,79.35
2018-07-11T09:30:52.096Z,78.63
2018-07-11T09:31:51.835Z,77.81
2018-07-11T09:32:52.296Z,78.96
2018-07-11T09:33:52.281Z,79.73
2018-07-11T09:34:53.088Z,78.00
2018-07-11T09:35:52.453Z,79.05
2018-07-11T09:36:52.692Z,77.65
2018-07-11T09:37:52.732Z,78.81
2018-07-11T09:38:52.749Z,77.56
2018-07-11T09:39:53.009Z,75.28
2018-07-11T09:40:53.273Z,73.30
2018-07-11T09:41:53.303Z,76.18
2018-07-11T09:42:53.538Z,74.10
2018-07-11T09:43:53.676Z,74.40
2018-07-11T09:44:54.036Z,72.12
2018-07-11T09:45:54.054Z,72.21
2018-07-11T09:46:54.440Z,71.19
2018-07-11T09:47:54.457Z,68.97
2018-07-11T09:48:54.642Z,70.42
2018-07-11T09:49:54.775Z,71.03
2018-07-11T09:50:54.873Z,69.78
2018-07-11T09:51:55.128Z,70.58
2018-07-11T09:52:55.194Z,68.75
2018-07-11T09:53:55.398Z,69.04
2018-07-11T09:54:55.699Z,68.84
2018-07-11T09:55:55.830Z,68.52
2018-07-11T09:56:55.951Z,68.04
2018-07-11T09:57:56.261Z,68.04
2018-07-11T09:58:56.357Z,67.55
2018-07-11T09:59:56.495Z,67.27
2018-07-11T10:00:56.831Z,66.69
2018-07-11T10:01:56.965Z,66.94
2018-07-11T10:02:57.019Z,67.04
2018-07-11T10:03:57.303Z,69.45
2018-07-11T10:04:57.482Z,69.26
2018-07-11T10:05:57.670Z,69.26
2018-07-11T10:06:57.889Z,68.65
2018-07-11T10:07:58.034Z,67.78
2018-07-11T10:08:58.374Z,67.88
2018-07-11T10:09:58.473Z,69.80
2018-07-11T10:10:58.561Z,67.10
2018-07-11T10:11:58.833Z,68.52
2018-07-11T10:12:58.923Z,67.58
2018-07-11T10:13:59.142Z,68.04
2018-07-11T10:14:59.411Z,65.91
2018-07-11T10:15:59.739Z,68.65
2018-07-11T10:16:59.928Z,67.49
2018-07-11T10:17:59.988Z,68.74
2018-07-11T10:19:00.280Z,69.71
2018-07-11T10:20:00.313Z,69.16
2018-07-11T10:21:00.662Z,68.77
2018-07-11T10:22:00.817Z,69.20
2018-07-11T10:23:00.820Z,68.91
2018-07-11T10:24:00.850Z,65.82
2018-07-11T10:25:01.133Z,65.24
2018-07-11T10:26:01.242Z,67.11
2018-07-11T10:27:01.629Z,65.14
2018-07-11T10:28:01.750Z,60.66
2018-07-11T10:29:02.626Z,58.78
2018-07-11T10:30:01.968Z,56.41
2018-07-11T10:31:01.974Z,54.50
2018-07-11T10:32:02.418Z,53.39
2018-07-11T10:33:02.700Z,52.76
2018-07-11T10:34:02.699Z,50.14
2018-07-11T10:35:02.947Z,48.39
2018-07-11T10:36:02.993Z,47.54
2018-07-11T10:37:03.210Z,47.17
2018-07-11T10:38:03.656Z,45.84
2018-07-11T10:39:03.615Z,48.10
2018-07-11T10:40:03.699Z,45.28
2018-07-11T10:41:03.847Z,45.49
2018-07-11T10:42:04.188Z,45.59
2018-07-11T10:43:04.366Z,45.12
2018-07-11T10:44:04.606Z,44.42
2018-07-11T10:45:04.899Z,43.62
2018-07-11T10:46:04.865Z,43.48
2018-07-11T10:47:04.880Z,44.31
2018-07-11T10:48:05.019Z,45.72
2018-07-11T10:49:05.269Z,50.24
2018-07-11T10:50:05.391Z,50.79
2018-07-11T10:51:05.616Z,52.39
2018-07-11T10:52:05.751Z,53.75
2018-07-11T10:53:05.952Z,55.17
2018-07-11T10:54:06.169Z,55.27
2018-07-11T10:55:06.263Z,55.36
2018-07-11T10:56:06.474Z,57.30
2018-07-11T10:57:06.789Z,55.78
2018-07-11T10:58:06.802Z,56.59
2018-07-11T10:59:07.015Z,51.59
2018-07-11T11:00:07.230Z,49.51
2018-07-11T11:01:07.340Z,47.59
2018-07-11T11:02:07.517Z,48.27
2018-07-11T11:03:07.712Z,48.90
2018-07-11T11:04:07.853Z,49.46
2018-07-11T11:05:07.997Z,51.21
2018-07-11T11:06:08.179Z,49.75
2018-07-11T11:07:08.375Z,49.02
2018-07-11T11:08:08.610Z,48.39
2018-07-11T11:09:08.724Z,45.89
2018-07-11T11:10:08.908Z,45.21
2018-07-11T11:11:09.055Z,46.88
2018-07-11T11:12:09.306Z,46.69
2018-07-11T11:13:09.382Z,45.84
2018-07-11T11:14:09.592Z,46.01
2018-07-11T11:15:09.706Z,45.15
2018-07-11T11:16:09.837Z,44.57
2018-07-11T11:17:10.061Z,45.86
2018-07-11T11:18:10.261Z,42.47
2018-07-11T11:19:10.390Z,43.49
2018-07-11T11:20:10.643Z,42.32
2018-07-11T11:21:10.859Z,39.88
2018-07-11T11:22:11.083Z,39.61
2018-07-11T11:23:11.146Z,39.41
2018-07-11T11:24:11.423Z,38.16
2018-07-11T11:25:11.566Z,38.69
2018-07-11T11:26:11.676Z,39.26
2018-07-11T11:27:11.890Z,39.82
2018-07-11T11:28:12.134Z,39.36
2018-07-11T11:29:12.213Z,37.99
2018-07-11T11:30:12.369Z,35.78
2018-07-11T11:31:12.611Z,36.06
2018-07-11T11:32:12.800Z,37.71
2018-07-11T11:33:12.923Z,37.13
2018-07-11T11:34:13.087Z,37.13
2018-07-11T11:35:13.348Z,36.65
2018-07-11T11:36:13.500Z,39.86
2018-07-11T11:37:13.633Z,38.98
2018-07-11T11:38:13.746Z,39.96
2018-07-11T11:39:14.016Z,38.49
2018-07-11T11:40:14.260Z,38.01
2018-07-11T11:41:14.390Z,37.62
2018-07-11T11:42:14.894Z,37.68
2018-07-11T11:43:14.763Z,39.90
2018-07-11T11:44:14.992Z,39.51
2018-07-11T11:45:15.178Z,38.79
2018-07-11T11:46:15.260Z,39.57
2018-07-11T11:47:15.517Z,42.46
2018-07-11T11:48:15.735Z,43.92
2018-07-11T11:49:15.799Z,42.66
2018-07-11T11:50:15.981Z,43.90
2018-07-11T11:51:16.223Z,40.29
2018-07-11T11:52:16.391Z,41.24
2018-07-11T11:53:16.559Z,41.14
2018-07-11T11:54:16.777Z,41.41
2018-07-11T11:55:16.980Z,42.05
2018-07-11T11:56:17.118Z,42.39
2018-07-11T11:57:17.256Z,39.22
2018-07-11T11:58:17.465Z,38.56
2018-07-11T11:59:17.656Z,38.95
2018-07-11T12:00:17.836Z,38.34
2018-07-11T12:01:18.079Z,38.75
2018-07-11T12:02:18.195Z,36.72
2018-07-11T12:03:18.377Z,37.99
2018-07-11T12:04:18.652Z,37.19
2018-07-11T12:05:18.709Z,37.56
2018-07-11T12:06:18.923Z,39.39
2018-07-11T12:07:19.191Z,38.54
2018-07-11T12:08:19.309Z,39.12
2018-07-11T12:09:19.485Z,39.22
2018-07-11T12:10:19.644Z,39.92
2018-07-11T12:11:19.773Z,39.16
2018-07-11T12:12:19.955Z,38.69
2018-07-11T12:13:20.216Z,37.70
2018-07-11T12:14:20.365Z,40.06
2018-07-11T12:15:20.593Z,38.30
2018-07-11T12:16:20.863Z,37.87
2018-07-11T12:17:20.929Z,38.26
2018-07-11T12:18:21.050Z,38.71
2018-07-11T12:19:21.211Z,38.29
2018-07-11T12:20:21.519Z,41.49
2018-07-11T12:21:21.589Z,42.93
2018-07-11T12:22:21.780Z,39.94
2018-07-11T12:23:21.993Z,39.84
2018-07-11T12:24:22.233Z,39.51
2018-07-11T12:25:22.346Z,39.92
2018-07-11T12:26:22.512Z,38.17
2018-07-11T12:27:22.797Z,37.95
2018-07-11T12:28:23.014Z,37.95
2018-07-11T12:29:23.097Z,39.59
2018-07-11T12:30:23.248Z,37.92
2018-07-11T12:31:23.403Z,38.21
2018-07-11T12:32:23.517Z,38.96
2018-07-11T12:33:23.842Z,38.39
2018-07-11T12:34:23.898Z,36.91
2018-07-11T12:35:24.085Z,37.28
2018-07-11T12:36:24.242Z,37.96
2018-07-11T12:37:24.483Z,37.99
2018-07-11T12:38:24.632Z,37.66
2018-07-11T12:39:24.753Z,36.79
2018-07-11T12:40:24.950Z,37.37
2018-07-11T12:41:25.090Z,37.06
2018-07-11T12:42:25.450Z,35.70
2018-07-11T12:43:25.971Z,34.45
2018-07-11T12:44:25.647Z,37.10
2018-07-11T12:45:25.901Z,37.89
2018-07-11T12:46:26.146Z,35.65
2018-07-11T12:47:26.264Z,36.32
2018-07-11T12:48:26.474Z,36.69
2018-07-11T12:49:26.671Z,35.80
2018-07-11T12:50:26.905Z,37.32
2018-07-11T12:51:27.088Z,36.83
2018-07-11T12:52:27.203Z,36.71
2018-07-11T12:53:27.381Z,36.15
2018-07-11T12:54:27.726Z,38.75
2018-07-11T12:55:27.604Z,38.46
2018-07-11T12:56:27.925Z,36.81
2018-07-11T12:57:28.068Z,35.96
2018-07-11T12:58:28.322Z,37.39
2018-07-11T12:59:28.456Z,36.81
2018-07-11T13:00:28.666Z,37.66
2018-07-11T13:01:28.735Z,37.76
2018-07-11T13:02:29.044Z,37.57
2018-07-11T13:03:29.208Z,37.66
2018-07-11T13:04:29.735Z,40.36
2018-07-11T13:05:29.620Z,40.26
2018-07-11T13:06:30.117Z,38.12
2018-07-11T13:07:29.966Z,39.08
2018-07-11T13:08:30.057Z,38.70
2018-07-11T13:09:30.063Z,38.99
2018-07-11T13:10:30.232Z,38.96
2018-07-11T13:11:30.360Z,39.26
2018-07-11T13:12:30.663Z,39.43
2018-07-11T13:13:30.810Z,41.47
2018-07-11T13:14:30.911Z,42.05
2018-07-11T13:15:31.067Z,41.37
2018-07-11T13:16:31.524Z,41.86
2018-07-11T13:17:31.507Z,42.63
2018-07-11T13:18:31.676Z,43.96
2018-07-11T13:19:31.895Z,43.48
2018-07-11T13:20:31.993Z,43.68
2018-07-11T13:21:32.213Z,44.54
2018-07-11T13:22:32.445Z,45.20
2018-07-11T13:23:32.615Z,43.65
2018-07-11T13:24:32.757Z,43.46
2018-07-11T13:25:32.935Z,45.01
2018-07-11T13:26:33.152Z,45.76
2018-07-11T13:27:33.243Z,45.45
2018-07-11T13:28:33.448Z,46.61
2018-07-11T13:29:33.607Z,47.16
2018-07-11T13:30:33.766Z,47.74
2018-07-11T13:31:33.996Z,48.97
2018-07-11T13:32:34.103Z,49.55
2018-07-11T13:33:34.291Z,49.82
2018-07-11T13:34:34.454Z,50.40
2018-07-11T13:35:34.592Z,52.23
2018-07-11T13:36:34.833Z,52.50
2018-07-11T13:37:34.945Z,52.11
2018-07-11T13:38:35.111Z,52.37
2018-07-11T13:39:35.310Z,52.28
2018-07-11T13:40:35.417Z,51.32
2018-07-11T13:41:35.604Z,51.41
2018-07-11T13:42:35.816Z,50.93
2018-07-11T13:43:35.952Z,53.34
2018-07-11T13:44:36.165Z,53.61
2018-07-11T13:45:36.288Z,52.64
2018-07-11T13:46:36.472Z,53.31
2018-07-11T13:47:36.637Z,53.51
2018-07-11T13:48:36.790Z,54.47
2018-07-11T13:49:37.042Z,54.11
2018-07-11T13:50:37.255Z,54.02
2018-07-11T13:51:37.356Z,54.79
2018-07-11T13:52:37.555Z,54.60
2018-07-11T13:53:37.748Z,54.21
2018-07-11T13:54:37.825Z,54.43
2018-07-11T13:55:38.056Z,53.56
2018-07-11T13:56:38.170Z,53.78
2018-07-11T13:57:38.381Z,52.43
2018-07-11T13:58:38.525Z,52.55
2018-07-11T13:59:38.731Z,51.01
2018-07-11T14:00:38.886Z,50.26
2018-07-11T14:01:39.033Z,50.16
2018-07-11T14:02:39.202Z,49.58
2018-07-11T14:03:39.415Z,50.48
2018-07-11T14:04:39.542Z,49.12
2018-07-11T14:05:39.750Z,48.27
2018-07-11T14:06:40.015Z,47.79
2018-07-11T14:07:40.093Z,48.27
2018-07-11T14:08:40.312Z,47.79
2018-07-11T14:09:40.530Z,47.11
2018-07-11T14:10:40.642Z,46.83
2018-07-11T14:11:40.844Z,47.50
2018-07-11T14:12:41.083Z,47.67
2018-07-11T14:13:41.349Z,47.19
2018-07-11T14:14:41.648Z,48.23
2018-07-11T14:15:41.613Z,49.29
2018-07-11T14:16:41.819Z,49.39
2018-07-11T14:17:41.898Z,50.23
2018-07-11T14:18:42.151Z,50.91
2018-07-11T14:19:42.223Z,52.07
2018-07-11T14:20:42.523Z,51.29
2018-07-11T14:21:42.647Z,51.39
2018-07-11T14:22:42.993Z,51.17
2018-07-11T14:23:43.142Z,51.59
2018-07-11T14:24:43.170Z,51.10
2018-07-11T14:25:43.392Z,51.29
2018-07-11T14:26:43.502Z,51.39
2018-07-11T14:27:43.742Z,51.87
2018-07-11T14:28:43.822Z,51.20
2018-07-11T14:29:44.043Z,52.33
2018-07-11T14:30:44.132Z,51.17
2018-07-11T14:31:44.355Z,50.09
2018-07-11T14:32:44.528Z,50.09
2018-07-11T14:33:44.759Z,50.57
2018-07-11T14:34:44.928Z,50.50
2018-07-11T14:35:45.116Z,52.01
2018-07-11T14:36:45.190Z,51.44
2018-07-11T14:37:45.343Z,51.15
2018-07-11T14:38:45.559Z,51.53
2018-07-11T14:39:45.734Z,50.47
2018-07-11T14:40:45.905Z,50.09
2018-07-11T14:41:46.043Z,50.96
2018-07-11T14:42:46.330Z,50.45
2018-07-11T14:43:46.508Z,51.51
2018-07-11T14:44:46.787Z,51.41
2018-07-11T14:45:47.019Z,51.32
2018-07-11T14:46:47.119Z,50.86
2018-07-11T14:47:47.330Z,49.77
2018-07-11T14:48:47.373Z,49.68
2018-07-11T14:49:47.532Z,50.06
2018-07-11T14:50:47.818Z,50.06
2018-07-11T14:51:47.869Z,49.68
2018-07-11T14:52:48.188Z,49.00
2018-07-11T14:53:48.309Z,48.90
2018-07-11T14:54:48.439Z,48.54
2018-07-11T14:55:48.798Z,48.74
2018-07-11T14:56:48.942Z,49.12
2018-07-11T14:57:49.045Z,48.64
2018-07-11T14:58:49.164Z,49.51
2018-07-11T14:59:49.381Z,49.80
2018-07-11T15:00:49.547Z,50.18
2018-07-11T15:01:49.632Z,49.99
2018-07-11T15:02:49.794Z,50.84
2018-07-11T15:03:50.060Z,51.34
2018-07-11T15:04:50.310Z,51.32
2018-07-11T15:05:50.529Z,51.51
2018-07-11T15:06:50.494Z,51.25
2018-07-11T15:07:50.750Z,50.96
2018-07-11T15:08:50.928Z,50.21
2018-07-11T15:09:51.131Z,50.11
2018-07-11T15:10:51.537Z,49.63
2018-07-11T15:11:51.458Z,50.43
2018-07-11T15:12:51.861Z,50.33
2018-07-11T15:13:52.058Z,50.33
2018-07-11T15:14:52.102Z,49.92
2018-07-11T15:15:52.203Z,50.43
2018-07-11T15:16:52.465Z,50.69
2018-07-11T15:17:52.621Z,52.33
2018-07-11T15:18:52.827Z,52.91
2018-07-11T15:19:52.914Z,52.69
2018-07-11T15:20:53.085Z,52.57
2018-07-11T15:21:53.274Z,52.37
2018-07-11T15:22:53.506Z,53.34
2018-07-11T15:23:53.696Z,53.73
2018-07-11T15:24:53.685Z,53.51
2018-07-11T15:25:53.908Z,53.99
2018-07-11T15:26:54.162Z,54.96
2018-07-11T15:27:54.410Z,54.96
2018-07-11T15:28:54.408Z,54.96
2018-07-11T15:29:54.630Z,56.21
2018-07-11T15:30:54.882Z,56.59
2018-07-11T15:31:55.010Z,56.47
2018-07-11T15:32:55.307Z,56.59
2018-07-11T15:33:55.341Z,56.66
2018-07-11T15:34:55.427Z,56.27
2018-07-11T15:35:55.920Z,56.30
2018-07-11T15:36:55.856Z,56.49
2018-07-11T15:37:56.090Z,58.14
2018-07-11T15:38:56.486Z,57.01
2018-07-11T15:39:56.540Z,55.10
2018-07-11T15:40:56.562Z,53.88
2018-07-11T15:41:56.671Z,53.03
2018-07-11T15:42:56.878Z,52.45
2018-07-11T15:43:57.090Z,51.87
2018-07-11T15:44:57.142Z,52.65
2018-07-11T15:45:57.404Z,53.03
2018-07-11T15:46:57.719Z,52.81
2018-07-11T15:47:57.730Z,53.69
2018-07-11T15:48:58.050Z,54.49
2018-07-11T15:49:58.235Z,54.75
2018-07-11T15:50:58.472Z,54.17
2018-07-11T15:51:58.792Z,55.40
2018-07-11T15:52:58.744Z,54.33
2018-07-11T15:53:58.897Z,55.20
2018-07-11T15:54:59.091Z,55.49
2018-07-11T15:55:59.214Z,56.33
2018-07-11T15:56:59.482Z,57.68
2018-07-11T15:57:59.698Z,56.72
2018-07-11T15:58:59.910Z,56.72
2018-07-11T16:00:00.145Z,57.87
2018-07-11T16:01:00.326Z,57.59
2018-07-11T16:02:00.375Z,58.36
2018-07-11T16:03:00.530Z,59.32
2018-07-11T16:04:00.640Z,60.16
2018-07-11T16:05:00.840Z,60.16
2018-07-11T16:06:00.925Z,59.20
2018-07-11T16:07:01.225Z,59.30
2018-07-11T16:08:01.303Z,58.40
2018-07-11T16:09:01.447Z,58.30
2018-07-11T16:10:01.677Z,58.30
2018-07-11T16:11:01.867Z,59.55
2018-07-11T16:12:02.003Z,60.52
2018-07-11T16:13:02.126Z,61.58
2018-07-11T16:14:02.319Z,61.38
2018-07-11T16:15:02.424Z,60.61
2018-07-11T16:16:02.623Z,60.03
2018-07-11T16:17:02.756Z,60.61
2018-07-11T16:18:02.960Z,60.58
2018-07-11T16:19:03.102Z,61.83
2018-07-11T16:20:03.276Z,62.41
2018-07-11T16:21:03.522Z,61.55
2018-07-11T16:22:03.616Z,61.07
2018-07-11T16:23:03.794Z,61.90
2018-07-11T16:24:03.975Z,62.19
2018-07-11T16:25:04.191Z,61.80
2018-07-11T16:26:04.294Z,62.96
2018-07-11T16:27:04.481Z,63.25
2018-07-11T16:28:04.731Z,63.41
2018-07-11T16:29:04.814Z,63.60
2018-07-11T16:30:05.016Z,64.08
2018-07-11T16:31:05.209Z,64.37
2018-07-11T16:32:05.365Z,65.24
2018-07-11T16:33:05.534Z,65.53
2018-07-11T16:34:05.675Z,65.24
2018-07-11T16:35:05.935Z,65.53
2018-07-11T16:36:06.007Z,65.43
2018-07-11T16:37:06.199Z,65.50
2018-07-11T16:38:06.491Z,66.55
2018-07-11T16:39:06.604Z,66.84
2018-07-11T16:40:06.772Z,66.94
2018-07-11T16:41:06.981Z,66.65
2018-07-11T16:42:07.143Z,67.22
2018-07-11T16:43:07.305Z,67.03
2018-07-11T16:44:07.502Z,68.38
2018-07-11T16:45:07.675Z,68.86
2018-07-11T16:46:07.849Z,69.53
2018-07-11T16:47:08.025Z,69.69
2018-07-11T16:48:08.168Z,70.65
2018-07-11T16:49:08.442Z,71.04
2018-07-11T16:50:08.503Z,70.75
2018-07-11T16:51:08.679Z,71.71
2018-07-11T16:52:08.839Z,70.75
2018-07-11T16:53:09.073Z,70.84
2018-07-11T16:54:09.244Z,71.23
2018-07-11T16:55:09.319Z,71.91
2018-07-11T16:56:09.585Z,72.38
2018-07-11T16:57:09.786Z,72.96
2018-07-11T16:58:09.901Z,73.06
2018-07-11T16:59:10.058Z,74.02
2018-07-11T17:00:10.428Z,74.85
2018-07-11T17:01:10.508Z,76.48
2018-07-11T17:02:10.624Z,78.50
2018-07-11T17:03:10.760Z,79.17
2018-07-11T17:04:10.970Z,79.65
2018-07-11T17:05:11.231Z,79.84
2018-07-11T17:06:11.368Z,80.66
2018-07-11T17:07:11.507Z,80.38
2018-07-11T17:08:11.774Z,80.66
2018-07-11T17:09:11.924Z,81.92
2018-07-11T17:10:12.070Z,83.07
2018-07-11T17:11:12.202Z,84.31
2018-07-11T17:12:12.370Z,84.89
2018-07-11T17:13:12.534Z,85.28
2018-07-11T17:14:12.761Z,86.05
2018-07-11T17:15:12.852Z,86.43
2018-07-11T17:16:13.147Z,86.05
2018-07-11T17:17:13.281Z,86.91
2018-07-11T17:18:13.435Z,86.29
2018-07-11T17:19:13.593Z,87.54
2018-07-11T17:20:13.727Z,88.21
2018-07-11T17:21:13.919Z,89.17
2018-07-11T17:22:14.093Z,90.13
2018-07-11T17:23:14.309Z,89.17
2018-07-11T17:24:14.376Z,90.13
2018-07-11T17:25:14.575Z,88.69
2018-07-11T17:26:14.751Z,88.11
2018-07-11T17:27:14.964Z,87.92
2018-07-11T17:28:15.157Z,86.82
2018-07-11T17:29:15.308Z,86.77
2018-07-11T17:30:15.360Z,86.82
2018-07-11T17:31:15.777Z,87.78
2018-07-11T17:32:15.856Z,86.63
2018-07-11T17:33:15.934Z,86.63
2018-07-11T17:34:16.175Z,86.72
2018-07-11T17:35:16.313Z,87.40
2018-07-11T17:36:16.486Z,87.78
2018-07-11T17:37:16.693Z,87.98
2018-07-11T17:38:16.740Z,88.84
2018-07-11T17:39:17.118Z,90.28
2018-07-11T17:40:17.186Z,91.24
2018-07-11T17:41:17.335Z,90.85
2018-07-11T17:42:17.516Z,90.85
2018-07-11T17:43:17.709Z,90.85
2018-07-11T17:44:17.860Z,90.18
2018-07-11T17:45:17.960Z,90.66
2018-07-11T17:46:18.229Z,90.18
2018-07-11T17:47:20.654Z,89.99
2018-07-11T17:48:19.136Z,90.95
2018-07-11T17:49:18.691Z,90.95
2018-07-11T17:50:18.800Z,90.28
2018-07-11T17:51:18.956Z,90.37
2018-07-11T17:52:19.163Z,89.22
2018-07-11T17:53:19.284Z,88.17
2018-07-11T17:54:19.551Z,88.74
2018-07-11T17:55:19.743Z,88.65
2018-07-11T17:56:19.926Z,89.75
2018-07-11T17:57:20.128Z,89.94
2018-07-11T17:58:20.176Z,89.17
2018-07-11T17:59:20.534Z,89.32
2018-07-11T18:00:20.555Z,89.36
2018-07-11T18:01:20.719Z,88.49
2018-07-11T18:02:21.024Z,88.88
2018-07-11T18:03:21.077Z,88.88
2018-07-11T18:04:21.299Z,89.17
2018-07-11T18:05:21.476Z,88.69
2018-07-11T18:06:21.634Z,87.78
2018-07-11T18:07:21.863Z,88.17
2018-07-11T18:08:22.094Z,88.26
2018-07-11T18:09:22.146Z,87.98
2018-07-11T18:10:22.277Z,89.32
2018-07-11T18:11:22.477Z,87.68
2018-07-11T18:12:22.682Z,88.07
2018-07-11T18:13:22.855Z,89.61
2018-07-11T18:14:23.066Z,89.89
2018-07-11T18:15:23.247Z,89.99
2018-07-11T18:16:23.417Z,88.40
2018-07-11T18:17:23.606Z,87.68
2018-07-11T18:18:23.739Z,88.55
2018-07-11T18:19:24.082Z,88.07
2018-07-11T18:20:24.082Z,87.68
2018-07-11T18:21:24.442Z,87.49
2018-07-11T18:22:24.432Z,87.49
2018-07-11T18:23:24.683Z,87.68
2018-07-11T18:24:37.221Z,88.07
2018-07-11T18:26:28.029Z,88.45
2018-07-11T18:28:28.199Z,88.55
2018-07-11T18:29:26.310Z,88.74
2018-07-11T18:30:25.993Z,88.65
2018-07-11T18:31:26.037Z,88.35
2018-07-11T18:32:26.256Z,89.22
2018-07-11T18:33:26.442Z,88.45
2018-07-11T18:34:26.567Z,88.45
2018-07-11T18:35:26.701Z,89.22
2018-07-11T18:36:26.897Z,89.41
2018-07-11T18:37:27.066Z,89.51
2018-07-11T18:38:27.299Z,89.32
2018-07-11T18:39:27.591Z,88.45
2018-07-11T18:40:28.556Z,88.45
2018-07-11T18:41:27.687Z,87.78
2018-07-11T18:42:27.861Z,88.40
2018-07-11T18:43:28.063Z,88.17
2018-07-11T18:44:28.148Z,88.21
2018-07-11T18:45:28.389Z,88.69
2018-07-11T18:46:28.526Z,88.55
2018-07-11T18:47:28.709Z,89.03
2018-07-11T18:48:28.923Z,89.61
2018-07-11T18:49:29.075Z,88.74
2018-07-11T18:50:29.236Z,88.55
2018-07-11T18:51:29.394Z,88.26
2018-07-11T18:52:29.615Z,87.98
2018-07-11T18:53:29.813Z,87.98
2018-07-11T18:54:29.920Z,88.26
2018-07-11T18:55:30.225Z,88.84
2018-07-11T18:56:30.238Z,89.79
2018-07-11T18:57:30.534Z,89.32
2018-07-11T18:58:30.668Z,89.12
2018-07-11T18:59:30.797Z,89.51
2018-07-11T19:00:30.974Z,89.22
2018-07-11T19:01:31.114Z,88.55
2018-07-11T19:02:31.363Z,88.65
2018-07-11T19:03:31.367Z,88.07
2018-07-11T19:04:31.800Z,88.45